sensor_id;sensor_type;location;lat;lon;timestamp;pressure;altitude;pressure_sealevel;temperature;humidity
65280;BME280;51878;55.748;48.742;2023-04-02T00:00:36;99097.78;;;3.87;96.42
65280;BME280;51878;55.748;48.742;2023-04-02T00:05:58;99107.22;;;4.09;93.66
65280;BME280;51878;55.748;48.742;2023-04-02T00:11:02;98998.50;;;3.61;91.84
65280;BME280;51878;55.748;48.742;2023-04-02T00:16:06;99151.69;;;4.74;91.15
65280;BME280;51878;55.748;48.742;2023-04-02T00:26:55;99128.63;;;4.89;88.22
65280;BME280;51878;55.748;48.742;2023-04-02T00:31:54;99133.28;;;5.13;86.60
65280;BME280;51878;55.748;48.742;2023-04-02T00:36:59;99134.50;;;5.19;85.65
65280;BME280;51878;55.748;48.742;2023-04-02T00:42:02;99131.69;;;5.29;84.92
65280;BME280;51878;55.748;48.742;2023-04-02T00:52:28;99156.53;;;5.57;85.10
65280;BME280;51878;55.748;48.742;2023-04-02T00:57:32;99065.03;;;4.98;84.88
65280;BME280;51878;55.748;48.742;2023-04-02T01:02:35;99147.28;;;5.59;85.17
65280;BME280;51878;55.748;48.742;2023-04-02T01:13:23;99042.56;;;4.99;86.91
65280;BME280;51878;55.748;48.742;2023-04-02T01:18:44;99155.06;;;5.71;87.43
65280;BME280;51878;55.748;48.742;2023-04-02T01:24:05;99147.66;;;5.65;88.31
65280;BME280;51878;55.748;48.742;2023-04-02T01:29:11;99056.72;;;5.09;88.90
65280;BME280;51878;55.748;48.742;2023-04-02T01:34:18;99062.75;;;5.03;89.20
65280;BME280;51878;55.748;48.742;2023-04-02T01:44:52;99123.41;;;5.14;90.98
65280;BME280;51878;55.748;48.742;2023-04-02T01:55:18;99085.34;;;4.92;91.85
65280;BME280;51878;55.748;48.742;2023-04-02T02:00:22;99166.69;;;5.37;92.92
65280;BME280;51878;55.748;48.742;2023-04-02T02:05:25;99119.94;;;4.95;94.19
65280;BME280;51878;55.748;48.742;2023-04-02T02:10:35;99184.66;;;5.36;94.94
65280;BME280;51878;55.748;48.742;2023-04-02T02:15:41;99180.56;;;5.24;95.78
65280;BME280;51878;55.748;48.742;2023-04-02T02:20:46;99148.53;;;5.05;95.97
65280;BME280;51878;55.748;48.742;2023-04-02T02:25:48;99141.97;;;4.99;96.44
65280;BME280;51878;55.748;48.742;2023-04-02T02:31:04;99169.81;;;4.98;97.68
65280;BME280;51878;55.748;48.742;2023-04-02T02:36:19;99213.13;;;5.21;98.60
65280;BME280;51878;55.748;48.742;2023-04-02T02:41:43;99074.78;;;4.21;99.07
65280;BME280;51878;55.748;48.742;2023-04-02T02:46:50;99183.91;;;4.92;100.00
65280;BME280;51878;55.748;48.742;2023-04-02T02:57:15;99239.56;;;5.08;100.00
65280;BME280;51878;55.748;48.742;2023-04-02T03:02:23;99172.41;;;4.82;100.00
65280;BME280;51878;55.748;48.742;2023-04-02T03:07:27;99250.84;;;5.11;100.00
65280;BME280;51878;55.748;48.742;2023-04-02T03:17:46;99234.25;;;4.90;100.00
65280;BME280;51878;55.748;48.742;2023-04-02T03:22:55;99252.31;;;5.06;100.00
65280;BME280;51878;55.748;48.742;2023-04-02T03:28:05;99246.44;;;4.84;100.00
65280;BME280;51878;55.748;48.742;2023-04-02T03:33:41;99248.13;;;4.85;100.00
65280;BME280;51878;55.748;48.742;2023-04-02T03:39:13;99262.31;;;4.95;100.00
65280;BME280;51878;55.748;48.742;2023-04-02T03:44:28;99211.31;;;4.60;100.00
65280;BME280;51878;55.748;48.742;2023-04-02T03:49:35;99225.66;;;4.68;100.00
65280;BME280;51878;55.748;48.742;2023-04-02T03:54:41;99269.38;;;4.96;100.00
65280;BME280;51878;55.748;48.742;2023-04-02T04:00:03;99246.28;;;4.86;100.00
65280;BME280;51878;55.748;48.742;2023-04-02T04:05:13;99210.84;;;4.64;100.00
65280;BME280;51878;55.748;48.742;2023-04-02T04:10:23;99277.16;;;5.26;100.00
65280;BME280;51878;55.748;48.742;2023-04-02T04:20:41;99293.50;;;5.58;100.00
65280;BME280;51878;55.748;48.742;2023-04-02T04:25:46;99280.47;;;5.72;100.00
65280;BME280;51878;55.748;48.742;2023-04-02T04:31:42;99254.78;;;5.77;100.00
65280;BME280;51878;55.748;48.742;2023-04-02T04:36:27;99238.25;;;5.98;100.00
65280;BME280;51878;55.748;48.742;2023-04-02T04:41:33;99193.97;;;5.93;98.89
65280;BME280;51878;55.748;48.742;2023-04-02T04:46:48;99247.34;;;6.48;96.66
65280;BME280;51878;55.748;48.742;2023-04-02T04:57:00;99304.97;;;7.04;91.70
65280;BME280;51878;55.748;48.742;2023-04-02T05:02:11;99267.56;;;6.93;90.31
65280;BME280;51878;55.748;48.742;2023-04-02T05:07:31;99170.38;;;6.46;87.73
65280;BME280;51878;55.748;48.742;2023-04-02T05:12:49;99267.25;;;7.21;85.96
65280;BME280;51878;55.748;48.742;2023-04-02T05:18:19;99271.28;;;7.33;86.45
65280;BME280;51878;55.748;48.742;2023-04-02T05:23:24;99330.41;;;7.68;84.38
65280;BME280;51878;55.748;48.742;2023-04-02T05:28:33;99337.31;;;7.70;83.88
65280;BME280;51878;55.748;48.742;2023-04-02T05:33:38;99288.44;;;7.49;82.56
65280;BME280;51878;55.748;48.742;2023-04-02T05:38:45;99320.94;;;7.80;83.01
65280;BME280;51878;55.748;48.742;2023-04-02T05:43:50;99265.50;;;7.61;82.23
65280;BME280;51878;55.748;48.742;2023-04-02T05:48:58;99335.00;;;8.23;81.71
65280;BME280;51878;55.748;48.742;2023-04-02T05:54:04;99328.31;;;8.50;82.12
65280;BME280;51878;55.748;48.742;2023-04-02T05:59:15;99318.88;;;8.77;77.87
65280;BME280;51878;55.748;48.742;2023-04-02T06:09:51;99312.94;;;9.05;73.41
65280;BME280;51878;55.748;48.742;2023-04-02T06:14:54;99332.59;;;9.45;71.12
65280;BME280;51878;55.748;48.742;2023-04-02T06:19:57;99336.75;;;9.85;70.10
65280;BME280;51878;55.748;48.742;2023-04-02T06:25:48;99200.53;;;9.25;67.86
65280;BME280;51878;55.748;48.742;2023-04-02T06:30:29;99348.41;;;10.39;67.11
65280;BME280;51878;55.748;48.742;2023-04-02T06:35:34;99363.53;;;10.63;65.58
65280;BME280;51878;55.748;48.742;2023-04-02T06:40:45;99307.38;;;10.12;65.59
65280;BME280;51878;55.748;48.742;2023-04-02T06:45:51;99364.56;;;10.47;65.05
65280;BME280;51878;55.748;48.742;2023-04-02T06:51:10;99349.44;;;10.38;65.85
65280;BME280;51878;55.748;48.742;2023-04-02T07:01:30;99327.97;;;10.72;62.69
65280;BME280;51878;55.748;48.742;2023-04-02T07:06:34;99307.50;;;10.70;63.57
65280;BME280;51878;55.748;48.742;2023-04-02T07:11:36;99351.94;;;11.27;62.97
65280;BME280;51878;55.748;48.742;2023-04-02T07:16:42;99337.19;;;11.57;60.37
65280;BME280;51878;55.748;48.742;2023-04-02T07:21:45;99321.53;;;11.59;59.75
65280;BME280;51878;55.748;48.742;2023-04-02T07:26:47;99336.09;;;12.02;58.81
65280;BME280;51878;55.748;48.742;2023-04-02T07:31:49;99300.13;;;11.99;56.91
65280;BME280;51878;55.748;48.742;2023-04-02T07:36:53;99363.44;;;12.70;55.84
65280;BME280;51878;55.748;48.742;2023-04-02T07:42:01;99328.53;;;12.80;54.37
65280;BME280;51878;55.748;48.742;2023-04-02T07:47:03;99258.59;;;12.74;53.63
65280;BME280;51878;55.748;48.742;2023-04-02T07:52:06;99361.81;;;13.63;51.89
65280;BME280;51878;55.748;48.742;2023-04-02T07:57:08;99309.00;;;13.71;50.86
65280;BME280;51878;55.748;48.742;2023-04-02T08:02:18;99344.78;;;14.28;49.10
65280;BME280;51878;55.748;48.742;2023-04-02T08:07:21;99351.66;;;14.57;48.30
65280;BME280;51878;55.748;48.742;2023-04-02T08:12:23;99339.94;;;14.95;47.28
65280;BME280;51878;55.748;48.742;2023-04-02T08:17:26;99363.97;;;15.18;46.51
65280;BME280;51878;55.748;48.742;2023-04-02T08:22:32;99339.06;;;15.08;44.61
65280;BME280;51878;55.748;48.742;2023-04-02T08:27:37;99344.91;;;15.43;44.64
65280;BME280;51878;55.748;48.742;2023-04-02T08:32:42;99327.50;;;15.63;44.24
65280;BME280;51878;55.748;48.742;2023-04-02T08:37:47;99345.00;;;16.30;41.44
65280;BME280;51878;55.748;48.742;2023-04-02T08:48:12;99319.34;;;16.31;41.78
65280;BME280;51878;55.748;48.742;2023-04-02T08:53:25;99240.03;;;16.43;40.56
65280;BME280;51878;55.748;48.742;2023-04-02T09:03:41;99340.16;;;18.02;38.57
65280;BME280;51878;55.748;48.742;2023-04-02T09:08:56;99282.25;;;17.68;38.01
65280;BME280;51878;55.748;48.742;2023-04-02T09:14:08;99311.06;;;17.47;36.95
65280;BME280;51878;55.748;48.742;2023-04-02T09:19:40;99338.50;;;17.17;37.91
65280;BME280;51878;55.748;48.742;2023-04-02T09:24:42;99273.47;;;16.64;38.11
65280;BME280;51878;55.748;48.742;2023-04-02T09:29:47;99286.50;;;16.99;38.61
65280;BME280;51878;55.748;48.742;2023-04-02T09:35:14;99330.13;;;17.42;37.55
65280;BME280;51878;55.748;48.742;2023-04-02T09:40:31;99354.94;;;17.17;38.63
65280;BME280;51878;55.748;48.742;2023-04-02T09:45:33;99263.88;;;17.03;38.71
65280;BME280;51878;55.748;48.742;2023-04-02T09:50:36;99282.88;;;17.28;38.06
65280;BME280;51878;55.748;48.742;2023-04-02T09:55:43;99319.72;;;17.32;37.63
65280;BME280;51878;55.748;48.742;2023-04-02T10:00:50;99346.47;;;17.49;37.99
65280;BME280;51878;55.748;48.742;2023-04-02T10:06:11;99310.56;;;17.39;37.90
65280;BME280;51878;55.748;48.742;2023-04-02T10:11:33;99334.31;;;17.56;37.40
65280;BME280;51878;55.748;48.742;2023-04-02T10:17:00;99246.41;;;17.16;37.80
65280;BME280;51878;55.748;48.742;2023-04-02T10:22:21;99200.13;;;16.54;38.27
65280;BME280;51878;55.748;48.742;2023-04-02T10:33:21;99342.16;;;17.83;37.39
65280;BME280;51878;55.748;48.742;2023-04-02T10:59:20;99310.84;;;15.46;39.20
65280;BME280;51878;55.748;48.742;2023-04-02T11:04:31;99349.56;;;15.36;39.45
65280;BME280;51878;55.748;48.742;2023-04-02T11:09:40;99247.84;;;14.84;39.85
65280;BME280;51878;55.748;48.742;2023-04-02T11:14:44;99329.81;;;15.34;40.17
65280;BME280;51878;55.748;48.742;2023-04-02T11:19:46;99312.34;;;15.42;40.04
65280;BME280;51878;55.748;48.742;2023-04-02T11:24:51;99305.09;;;15.54;40.21
65280;BME280;51878;55.748;48.742;2023-04-02T11:35:20;99297.28;;;15.83;38.83
65280;BME280;51878;55.748;48.742;2023-04-02T11:40:46;99324.13;;;16.36;39.15
65280;BME280;51878;55.748;48.742;2023-04-02T11:45:52;99329.91;;;16.28;38.66
65280;BME280;51878;55.748;48.742;2023-04-02T11:50:56;99328.81;;;16.29;38.94
65280;BME280;51878;55.748;48.742;2023-04-02T12:11:53;99325.03;;;16.48;36.49
65280;BME280;51878;55.748;48.742;2023-04-02T12:16:56;99263.38;;;16.09;36.25
65280;BME280;51878;55.748;48.742;2023-04-02T12:21:59;99273.31;;;16.40;36.59
65280;BME280;51878;55.748;48.742;2023-04-02T12:27:07;99321.00;;;17.18;35.71
65280;BME280;51878;55.748;48.742;2023-04-02T12:32:20;99304.03;;;17.51;35.59
65280;BME280;51878;55.748;48.742;2023-04-02T12:37:27;99302.28;;;17.69;35.17
65280;BME280;51878;55.748;48.742;2023-04-02T12:42:36;99252.31;;;17.43;36.07
65280;BME280;51878;55.748;48.742;2023-04-02T12:47:43;99305.09;;;17.92;34.67
65280;BME280;51878;55.748;48.742;2023-04-02T12:52:50;99292.66;;;18.13;34.75
65280;BME280;51878;55.748;48.742;2023-04-02T12:57:55;99253.41;;;17.77;35.20
65280;BME280;51878;55.748;48.742;2023-04-02T13:03:15;99302.66;;;18.08;35.58
65280;BME280;51878;55.748;48.742;2023-04-02T13:08:26;99280.47;;;17.74;35.60
65280;BME280;51878;55.748;48.742;2023-04-02T13:13:37;99284.69;;;17.88;35.96
65280;BME280;51878;55.748;48.742;2023-04-02T13:18:41;99197.47;;;17.43;35.28
65280;BME280;51878;55.748;48.742;2023-04-02T13:23:44;99254.84;;;18.15;34.50
65280;BME280;51878;55.748;48.742;2023-04-02T13:34:11;99236.50;;;17.15;36.36
65280;BME280;51878;55.748;48.742;2023-04-02T13:39:13;99280.38;;;16.85;37.27
65280;BME280;51878;55.748;48.742;2023-04-02T13:44:26;99200.81;;;16.01;38.13
65280;BME280;51878;55.748;48.742;2023-04-02T13:49:30;99231.47;;;15.59;39.24
65280;BME280;51878;55.748;48.742;2023-04-02T13:59:44;99257.03;;;14.90;40.83
65280;BME280;51878;55.748;48.742;2023-04-02T14:04:48;99270.81;;;14.63;41.08
65280;BME280;51878;55.748;48.742;2023-04-02T14:30:54;99284.03;;;13.08;44.94
65280;BME280;51878;55.748;48.742;2023-04-02T14:36:24;99274.31;;;12.78;46.13
65280;BME280;51878;55.748;48.742;2023-04-02T14:41:41;99280.09;;;12.55;46.78
65280;BME280;51878;55.748;48.742;2023-04-02T14:46:46;99278.06;;;12.16;47.89
65280;BME280;51878;55.748;48.742;2023-04-02T14:57:04;99272.97;;;11.71;49.18
65280;BME280;51878;55.748;48.742;2023-04-02T15:02:21;99176.53;;;10.98;50.08
65280;BME280;51878;55.748;48.742;2023-04-02T15:07:32;99258.47;;;11.92;50.27
65280;BME280;51878;55.748;48.742;2023-04-02T15:12:39;99071.50;;;11.20;49.08
65280;BME280;51878;55.748;48.742;2023-04-02T15:17:41;99102.34;;;11.40;48.67
65280;BME280;51878;55.748;48.742;2023-04-02T15:23:27;99268.88;;;12.17;48.91
65280;BME280;51878;55.748;48.742;2023-04-02T15:28:42;99204.56;;;11.33;49.67
65280;BME280;51878;55.748;48.742;2023-04-02T15:33:51;99271.91;;;11.44;50.06
65280;BME280;51878;55.748;48.742;2023-04-02T15:44:16;99265.22;;;10.75;52.80
65280;BME280;51878;55.748;48.742;2023-04-02T16:05:16;99285.63;;;10.35;55.62
65280;BME280;51878;55.748;48.742;2023-04-02T16:10:40;99231.81;;;10.02;56.17
65280;BME280;51878;55.748;48.742;2023-04-02T16:15:52;99261.41;;;10.19;57.03
65280;BME280;51878;55.748;48.742;2023-04-02T16:20:59;99246.66;;;10.06;58.27
65280;BME280;51878;55.748;48.742;2023-04-02T16:31:40;99281.97;;;9.83;62.91
65280;BME280;51878;55.748;48.742;2023-04-02T16:36:53;99284.56;;;9.77;63.98
65280;BME280;51878;55.748;48.742;2023-04-02T16:42:00;99271.22;;;9.75;64.59
65280;BME280;51878;55.748;48.742;2023-04-02T16:47:29;99285.13;;;9.57;66.88
65280;BME280;51878;55.748;48.742;2023-04-02T16:52:57;99217.59;;;9.26;67.10
65280;BME280;51878;55.748;48.742;2023-04-02T16:58:09;99276.34;;;9.55;68.88
65280;BME280;51878;55.748;48.742;2023-04-02T17:09:14;99216.66;;;9.19;69.83
65280;BME280;51878;55.748;48.742;2023-04-02T17:15:10;99273.25;;;9.58;69.30
65280;BME280;51878;55.748;48.742;2023-04-02T17:20:23;99249.75;;;9.44;70.32
65280;BME280;51878;55.748;48.742;2023-04-02T17:25:30;99191.81;;;9.00;70.83
65280;BME280;51878;55.748;48.742;2023-04-02T17:44:37;99277.19;;;9.18;73.84
65280;BME280;51878;55.748;48.742;2023-04-02T17:55:53;99260.75;;;9.04;75.61
65280;BME280;51878;55.748;48.742;2023-04-02T18:06:34;99224.69;;;8.66;77.76
65280;BME280;51878;55.748;48.742;2023-04-02T18:17:25;99211.66;;;8.69;76.66
65280;BME280;51878;55.748;48.742;2023-04-02T18:22:52;99224.50;;;8.90;76.45
65280;BME280;51878;55.748;48.742;2023-04-02T18:49:44;99215.47;;;8.60;80.16
65280;BME280;51878;55.748;48.742;2023-04-02T19:00:24;99226.97;;;8.54;81.47
65280;BME280;51878;55.748;48.742;2023-04-02T19:10:45;99134.91;;;7.78;83.49
65280;BME280;51878;55.748;48.742;2023-04-02T19:16:08;99225.94;;;8.24;84.29
65280;BME280;51878;55.748;48.742;2023-04-02T19:21:58;99221.22;;;8.18;85.13
65280;BME280;51878;55.748;48.742;2023-04-02T19:47:49;99157.88;;;7.74;88.09
65280;BME280;51878;55.748;48.742;2023-04-02T19:52:51;99144.44;;;7.58;88.73
65280;BME280;51878;55.748;48.742;2023-04-02T19:57:53;99118.53;;;7.40;89.14
65280;BME280;51878;55.748;48.742;2023-04-02T20:03:09;99110.63;;;7.39;89.59
65280;BME280;51878;55.748;48.742;2023-04-02T20:08:11;99077.88;;;7.11;89.79
65280;BME280;51878;55.748;48.742;2023-04-02T20:13:13;99192.88;;;7.82;90.37
65280;BME280;51878;55.748;48.742;2023-04-02T20:18:16;99179.25;;;7.76;90.01
65280;BME280;51878;55.748;48.742;2023-04-02T20:23:18;99136.75;;;7.38;91.51
65280;BME280;51878;55.748;48.742;2023-04-02T20:28:25;99129.84;;;7.36;91.20
65280;BME280;51878;55.748;48.742;2023-04-02T20:33:27;99150.03;;;7.48;90.89
65280;BME280;51878;55.748;48.742;2023-04-02T20:38:30;99090.81;;;7.15;90.82
65280;BME280;51878;55.748;48.742;2023-04-02T20:43:33;99126.31;;;7.35;91.35
65280;BME280;51878;55.748;48.742;2023-04-02T20:48:37;99172.44;;;7.57;91.46
65280;BME280;51878;55.748;48.742;2023-04-02T20:53:39;99096.19;;;7.23;91.22
65280;BME280;51878;55.748;48.742;2023-04-02T20:58:42;99172.75;;;7.62;91.62
65280;BME280;51878;55.748;48.742;2023-04-02T21:03:45;99107.81;;;7.24;91.43
65280;BME280;51878;55.748;48.742;2023-04-02T21:08:47;99158.13;;;7.48;92.49
65280;BME280;51878;55.748;48.742;2023-04-02T21:13:50;99172.97;;;7.52;93.12
65280;BME280;51878;55.748;48.742;2023-04-02T21:18:53;99147.03;;;7.43;92.38
65280;BME280;51878;55.748;48.742;2023-04-02T21:23:57;99143.19;;;7.29;93.49
65280;BME280;51878;55.748;48.742;2023-04-02T21:29:00;99156.28;;;7.49;91.99
65280;BME280;51878;55.748;48.742;2023-04-02T21:34:03;99110.91;;;7.13;92.02
65280;BME280;51878;55.748;48.742;2023-04-02T21:39:09;99097.44;;;7.04;92.30
65280;BME280;51878;55.748;48.742;2023-04-02T21:44:13;99075.56;;;6.83;92.51
65280;BME280;51878;55.748;48.742;2023-04-02T21:49:17;99124.53;;;7.11;93.47
65280;BME280;51878;55.748;48.742;2023-04-02T21:54:21;99148.44;;;7.22;92.98
65280;BME280;51878;55.748;48.742;2023-04-02T21:59:23;99141.69;;;7.18;92.92
65280;BME280;51878;55.748;48.742;2023-04-02T22:04:26;99072.72;;;6.76;92.79
65280;BME280;51878;55.748;48.742;2023-04-02T22:09:29;99018.59;;;6.47;94.01
65280;BME280;51878;55.748;48.742;2023-04-02T22:14:31;99067.03;;;6.71;94.47
65280;BME280;51878;55.748;48.742;2023-04-02T22:19:33;99122.22;;;7.00;94.98
65280;BME280;51878;55.748;48.742;2023-04-02T22:24:35;99135.69;;;7.00;95.52
65280;BME280;51878;55.748;48.742;2023-04-02T22:29:37;99051.75;;;6.47;96.58
65280;BME280;51878;55.748;48.742;2023-04-02T22:34:39;99064.69;;;6.52;96.60
65280;BME280;51878;55.748;48.742;2023-04-02T22:39:46;99129.47;;;6.91;96.18
65280;BME280;51878;55.748;48.742;2023-04-02T22:44:54;99072.94;;;6.50;96.41
65280;BME280;51878;55.748;48.742;2023-04-02T22:49:56;99117.19;;;6.72;97.42
65280;BME280;51878;55.748;48.742;2023-04-02T22:54:59;99117.03;;;6.66;98.10
65280;BME280;51878;55.748;48.742;2023-04-02T23:00:01;98996.72;;;5.92;98.85
65280;BME280;51878;55.748;48.742;2023-04-02T23:05:05;99090.63;;;6.53;97.85
65280;BME280;51878;55.748;48.742;2023-04-02T23:10:09;99059.50;;;6.26;98.55
65280;BME280;51878;55.748;48.742;2023-04-02T23:15:13;99000.44;;;5.91;99.06
65280;BME280;51878;55.748;48.742;2023-04-02T23:20:15;99083.56;;;6.35;99.89
65280;BME280;51878;55.748;48.742;2023-04-02T23:25:17;98993.38;;;5.74;100.00
65280;BME280;51878;55.748;48.742;2023-04-02T23:30:19;99088.44;;;6.32;100.00
65280;BME280;51878;55.748;48.742;2023-04-02T23:35:21;99067.22;;;6.12;100.00
65280;BME280;51878;55.748;48.742;2023-04-02T23:40:23;99032.88;;;5.90;100.00
65280;BME280;51878;55.748;48.742;2023-04-02T23:45:25;98986.78;;;5.52;100.00
65280;BME280;51878;55.748;48.742;2023-04-02T23:50:27;99081.53;;;5.96;100.00
65280;BME280;51878;55.748;48.742;2023-04-02T23:55:29;99077.66;;;5.99;100.00
